createdAt,value
2023-01-02T00:02:07.091Z,60.00
2023-01-02T00:07:10.935Z,60.10
2023-01-02T00:12:14.331Z,60.00
2023-01-02T00:17:20.656Z,60.00
2023-01-02T00:22:24.283Z,59.90
2023-01-02T00:27:27.670Z,59.90
2023-01-02T00:32:32.336Z,59.80
2023-01-02T00:37:35.731Z,59.80
2023-01-02T00:42:39.132Z,59.80
2023-01-02T00:47:43.830Z,59.90
2023-01-02T00:52:47.669Z,59.90
2023-01-02T00:57:51.304Z,59.90
2023-01-02T01:02:58.663Z,59.90
2023-01-02T01:08:02.533Z,59.90
2023-01-02T01:13:06.364Z,59.80
2023-01-02T01:18:11.106Z,59.70
2023-01-02T01:23:14.478Z,59.80
2023-01-02T01:28:17.940Z,59.90
2023-01-02T01:33:22.891Z,59.80
2023-01-02T01:38:26.266Z,59.90
2023-01-02T01:43:43.340Z,59.90
2023-01-02T01:48:51.165Z,60.00
2023-01-02T01:53:58.739Z,59.80
2023-01-02T01:59:02.699Z,59.80
2023-01-02T02:04:08.289Z,59.70
2023-01-02T02:09:17.910Z,59.70
2023-01-02T02:14:21.311Z,59.80
2023-01-02T02:20:02.328Z,59.80
2023-01-02T02:25:34.386Z,60.90
2023-01-02T02:30:41.622Z,60.00
2023-01-02T02:35:54.368Z,60.10
2023-01-02T02:41:06.802Z,60.30
2023-01-02T02:46:18.071Z,60.30
2023-01-02T02:51:31.476Z,60.30
2023-01-02T02:56:35.569Z,60.50
2023-01-02T03:01:40.356Z,60.50
2023-01-02T03:07:01.621Z,60.50
2023-01-02T03:12:14.057Z,60.70
2023-01-02T03:17:26.764Z,60.80
2023-01-02T03:22:34.885Z,61.00
2023-01-02T03:27:42.870Z,60.90
2023-01-02T03:32:52.019Z,60.90
2023-01-02T03:37:58.753Z,61.10
2023-01-02T03:43:08.249Z,61.30
2023-01-02T03:48:21.935Z,61.30
2023-01-02T03:53:26.092Z,61.40
2023-01-02T03:58:38.289Z,61.50
2023-01-02T04:03:50.400Z,61.50
2023-01-02T04:09:00.990Z,61.60
2023-01-02T04:14:11.402Z,61.70
2023-01-02T04:19:24.192Z,61.80
2023-01-02T04:24:32.360Z,61.90
2023-01-02T04:29:35.847Z,62.00
2023-01-02T04:34:43.199Z,61.90
2023-01-02T04:39:47.035Z,62.00
2023-01-02T04:44:50.432Z,62.00
2023-01-02T04:49:55.223Z,62.10
2023-01-02T04:54:58.626Z,62.10
2023-01-02T05:00:02.017Z,62.20
2023-01-02T05:05:08.415Z,62.30
2023-01-02T05:10:11.887Z,62.30
2023-01-02T05:15:15.318Z,62.30
2023-01-02T05:20:20.518Z,62.50
2023-01-02T05:25:23.982Z,62.60
2023-01-02T05:30:27.798Z,62.50
2023-01-02T05:35:33.595Z,62.50
2023-01-02T05:40:37.428Z,62.30
2023-01-02T05:45:40.846Z,63.20
2023-01-02T05:50:45.558Z,62.00
2023-01-02T05:55:48.961Z,62.00
2023-01-02T06:00:52.345Z,62.00
2023-01-02T06:05:57.203Z,62.00
2023-01-02T06:11:00.701Z,62.00
2023-01-02T06:16:05.862Z,62.00
2023-01-02T06:21:13.599Z,62.00
2023-01-02T06:26:19.214Z,62.00
2023-01-02T06:31:24.550Z,62.00
2023-01-02T06:36:31.608Z,62.10
2023-01-02T06:41:35.040Z,62.10
2023-01-02T06:46:38.931Z,62.00
2023-01-02T06:51:43.960Z,62.00
2023-01-02T06:56:47.337Z,62.10
2023-01-02T07:01:50.822Z,62.00
2023-01-02T07:06:55.739Z,61.90
2023-01-02T07:11:59.498Z,61.80
2023-01-02T07:17:03.222Z,61.80
2023-01-02T07:22:08.203Z,61.80
2023-01-02T07:27:11.601Z,61.70
2023-01-02T07:32:15.020Z,61.70
2023-01-02T07:37:20.037Z,61.60
2023-01-02T07:42:23.399Z,61.60
2023-01-02T07:47:27.066Z,61.70
2023-01-02T07:52:31.798Z,61.80
2023-01-02T07:57:35.154Z,61.80
2023-01-02T08:02:38.730Z,62.00
2023-01-02T08:07:45.212Z,62.10
2023-01-02T08:12:48.768Z,62.20
2023-01-02T08:17:52.440Z,62.40
2023-01-02T08:22:58.533Z,62.50
2023-01-02T08:28:01.920Z,62.60
2023-01-02T08:33:05.386Z,62.80
2023-01-02T08:38:10.135Z,63.00
2023-01-02T08:43:13.568Z,63.20
2023-01-02T08:48:21.017Z,63.20
2023-01-02T08:53:26.464Z,63.40
2023-01-02T08:58:30.134Z,63.40
2023-01-02T09:03:33.613Z,63.40
2023-01-02T09:08:38.406Z,63.40
2023-01-02T09:13:42.272Z,63.60
2023-01-02T09:18:45.747Z,63.80
2023-01-02T09:23:50.564Z,63.70
2023-01-02T09:28:54.264Z,63.80
2023-01-02T09:33:57.951Z,63.80
2023-01-02T09:39:03.422Z,63.70
2023-01-02T09:44:12.436Z,63.70
2023-01-02T09:49:19.343Z,63.70
2023-01-02T09:54:30.006Z,63.60
2023-01-02T09:59:37.311Z,63.50
2023-01-02T10:04:56.810Z,63.50
2023-01-02T10:10:07.101Z,63.40
2023-01-02T10:15:15.064Z,63.30
2023-01-02T10:20:26.376Z,63.10
2023-01-02T10:25:34.544Z,63.10
2023-01-02T10:30:44.798Z,63.00
2023-01-02T10:35:54.305Z,62.70
2023-01-02T10:40:59.387Z,62.30
2023-01-02T10:46:04.177Z,62.10
2023-01-02T10:51:15.482Z,62.00
2023-01-02T10:56:21.379Z,61.80
2023-01-02T11:01:24.975Z,61.80
2023-01-02T11:06:38.935Z,61.80
2023-01-02T11:11:51.183Z,61.70
2023-01-02T11:16:55.640Z,61.80
2023-01-02T11:22:00.037Z,61.80
2023-01-02T11:27:04.960Z,61.80
2023-01-02T11:32:08.741Z,61.60
2023-01-02T11:37:17.972Z,61.50
2023-01-02T11:42:46.573Z,61.60
2023-01-02T11:47:52.237Z,61.60
2023-01-02T11:53:00.226Z,61.50
2023-01-02T11:58:13.144Z,61.40
2023-01-02T12:03:19.249Z,61.40
2023-01-02T12:08:40.381Z,61.40
2023-01-02T12:14:01.383Z,61.40
2023-01-02T12:19:29.771Z,61.40
2023-01-02T12:24:54.011Z,61.40
2023-01-02T12:30:08.294Z,61.40
2023-01-02T12:35:23.676Z,61.50
2023-01-02T12:40:53.132Z,61.60
2023-01-02T12:46:09.597Z,61.50
2023-01-02T12:51:20.713Z,61.50
2023-01-02T12:56:31.501Z,61.40
2023-01-02T13:01:41.162Z,61.60
2023-01-02T13:06:52.325Z,61.70
2023-01-02T13:12:02.250Z,61.60
2023-01-02T13:17:25.685Z,61.80
2023-01-02T13:22:37.745Z,61.80
2023-01-02T13:27:41.934Z,61.80
2023-01-02T13:32:49.264Z,61.80
2023-01-02T13:37:54.215Z,61.90
2023-01-02T13:43:00.462Z,61.90
2023-01-02T13:48:07.801Z,62.00
2023-01-02T13:53:30.173Z,62.00
2023-01-02T13:59:01.458Z,62.10
2023-01-02T14:04:41.734Z,62.20
2023-01-02T14:10:21.876Z,62.30
2023-01-02T14:15:27.306Z,62.40
2023-01-02T14:20:32.515Z,62.30
2023-01-02T14:25:48.920Z,62.10
2023-01-02T14:30:53.058Z,62.00
2023-01-02T14:35:58.775Z,61.90
2023-01-02T14:41:17.419Z,61.80
2023-01-02T14:46:23.984Z,61.70
2023-01-02T14:51:34.069Z,61.70
2023-01-02T14:56:42.436Z,61.80
2023-01-02T15:01:50.969Z,61.90
2023-01-02T15:07:10.511Z,61.90
2023-01-02T15:12:41.446Z,61.80
2023-01-02T15:17:48.212Z,61.80
2023-01-02T15:22:54.366Z,61.90
2023-01-02T15:27:59.126Z,62.00
2023-01-02T15:33:02.490Z,62.00
2023-01-02T15:38:19.343Z,61.90
2023-01-02T15:43:49.401Z,61.90
2023-01-02T15:48:53.955Z,61.90
2023-01-02T15:54:03.006Z,61.90
2023-01-02T15:59:29.671Z,62.00
2023-01-02T16:04:34.401Z,62.00
2023-01-02T16:09:39.076Z,61.90
2023-01-02T16:14:49.592Z,62.00
2023-01-02T16:19:58.811Z,62.00
2023-01-02T16:25:08.347Z,63.10
2023-01-02T16:30:41.108Z,62.10
2023-01-02T16:35:58.222Z,62.10
2023-01-02T16:41:08.407Z,62.30
2023-01-02T16:46:16.290Z,62.20
2023-01-02T16:51:19.854Z,62.20
2023-01-02T16:56:24.009Z,62.10
2023-01-02T17:01:28.848Z,62.20
2023-01-02T17:06:32.479Z,62.20
2023-01-02T17:11:36.058Z,62.40
2023-01-02T17:16:40.827Z,62.50
2023-01-02T17:21:44.239Z,62.60
2023-01-02T17:26:48.181Z,62.80
2023-01-02T17:31:52.939Z,62.80
2023-01-02T17:36:57.042Z,62.80
2023-01-02T17:42:00.438Z,62.80
2023-01-02T17:47:38.574Z,63.00
2023-01-02T17:52:28.917Z,63.00
2023-01-02T17:57:32.472Z,63.10
2023-01-02T18:02:37.440Z,63.20
2023-01-02T18:07:40.905Z,63.20
2023-01-02T18:12:45.232Z,63.20
2023-01-02T18:17:50.891Z,63.40
2023-01-02T18:22:54.596Z,63.50
2023-01-02T18:28:03.025Z,63.60
2023-01-02T18:33:15.807Z,63.60
2023-01-02T18:38:32.126Z,63.60
2023-01-02T18:43:36.529Z,63.60
2023-01-02T18:48:42.039Z,63.60
2023-01-02T18:53:48.690Z,63.60
2023-01-02T18:58:59.814Z,63.60
2023-01-02T19:04:26.752Z,63.60
2023-01-02T19:09:35.093Z,63.60
2023-01-02T19:14:40.732Z,63.70
2023-01-02T19:19:47.856Z,63.70
2023-01-02T19:24:51.586Z,63.70
2023-01-02T19:29:55.701Z,63.70
2023-01-02T19:35:03.336Z,63.70
2023-01-02T19:40:18.688Z,63.80
2023-01-02T19:45:24.681Z,63.80
2023-01-02T19:50:29.437Z,63.70
2023-01-02T19:55:36.745Z,63.70
2023-01-02T20:00:40.222Z,63.80
2023-01-02T20:05:45.006Z,63.80
2023-01-02T20:10:48.693Z,63.70
2023-01-02T20:15:53.209Z,63.80
2023-01-02T20:20:58.384Z,63.80
2023-01-02T20:26:01.733Z,63.70
2023-01-02T20:31:09.891Z,63.60
2023-01-02T20:36:14.945Z,63.60
2023-01-02T20:41:18.892Z,63.40
2023-01-02T20:46:22.871Z,63.30
2023-01-02T20:51:30.247Z,63.10
2023-01-02T20:56:34.072Z,63.10
2023-01-02T21:01:37.851Z,63.00
2023-01-02T21:06:42.759Z,62.90
2023-01-02T21:11:46.466Z,62.80
2023-01-02T21:16:50.085Z,62.80
2023-01-02T21:21:54.842Z,62.70
2023-01-02T21:26:58.230Z,62.80
2023-01-02T21:32:01.581Z,62.80
2023-01-02T21:37:07.811Z,62.90
2023-01-02T21:42:17.373Z,63.00
2023-01-02T21:47:21.449Z,63.00
2023-01-02T21:52:26.555Z,63.00
2023-01-02T21:58:02.555Z,63.10
2023-01-02T22:02:53.706Z,63.00
2023-01-02T22:07:59.563Z,63.10
2023-01-02T22:13:02.981Z,63.20
2023-01-02T22:18:06.509Z,62.90
2023-01-02T22:23:11.247Z,62.80
2023-01-02T22:28:14.933Z,62.90
2023-01-02T22:33:18.732Z,62.70
2023-01-02T22:38:23.764Z,62.70
2023-01-02T22:43:28.932Z,62.80
2023-01-02T22:48:36.938Z,62.70
2023-01-02T22:53:42.414Z,62.70
2023-01-02T22:58:47.094Z,62.70
2023-01-02T23:03:50.955Z,62.80
2023-01-02T23:08:56.044Z,62.60
2023-01-02T23:13:59.472Z,62.60
2023-01-02T23:19:18.937Z,62.40
2023-01-02T23:24:26.009Z,62.30
2023-01-02T23:29:30.170Z,62.20
2023-01-02T23:34:33.777Z,63.20
2023-01-02T23:39:38.637Z,62.20
2023-01-02T23:44:44.001Z,62.20
2023-01-02T23:49:47.383Z,62.30
2023-01-02T23:54:52.166Z,62.30
2023-01-02T23:59:55.800Z,62.40
